sensor_id;sensor_type;location;lat;lon;timestamp;P1;durP1;ratioP1;P2;durP2;ratioP2
78931;SDS011;68331;53.362;55.932;2023-07-20T00:01:26;10.02;;;9.02;;
78931;SDS011;68331;53.362;55.932;2023-07-20T00:03:53;9.77;;;8.77;;
78931;SDS011;68331;53.362;55.932;2023-07-20T00:06:22;10.07;;;9.02;;
78931;SDS011;68331;53.362;55.932;2023-07-20T00:08:51;9.75;;;8.40;;
78931;SDS011;68331;53.362;55.932;2023-07-20T00:11:17;8.40;;;7.60;;
78931;SDS011;68331;53.362;55.932;2023-07-20T00:13:44;9.75;;;8.75;;
78931;SDS011;68331;53.362;55.932;2023-07-20T00:16:13;9.50;;;8.70;;
78931;SDS011;68331;53.362;55.932;2023-07-20T00:18:39;9.73;;;8.77;;
78931;SDS011;68331;53.362;55.932;2023-07-20T00:21:05;8.68;;;7.88;;
78931;SDS011;68331;53.362;55.932;2023-07-20T00:23:31;9.23;;;8.25;;
78931;SDS011;68331;53.362;55.932;2023-07-20T00:25:57;9.43;;;8.38;;
78931;SDS011;68331;53.362;55.932;2023-07-20T00:28:23;10.27;;;9.27;;
78931;SDS011;68331;53.362;55.932;2023-07-20T00:30:49;10.07;;;9.05;;
78931;SDS011;68331;53.362;55.932;2023-07-20T00:33:16;8.13;;;7.32;;
78931;SDS011;68331;53.362;55.932;2023-07-20T00:35:43;10.10;;;9.02;;
78931;SDS011;68331;53.362;55.932;2023-07-20T00:38:10;9.90;;;8.98;;
78931;SDS011;68331;53.362;55.932;2023-07-20T00:40:37;8.70;;;7.80;;
78931;SDS011;68331;53.362;55.932;2023-07-20T00:43:04;10.07;;;9.07;;
78931;SDS011;68331;53.362;55.932;2023-07-20T00:45:31;9.57;;;8.57;;
78931;SDS011;68331;53.362;55.932;2023-07-20T00:47:58;10.50;;;9.50;;
78931;SDS011;68331;53.362;55.932;2023-07-20T00:50:25;9.85;;;8.98;;
78931;SDS011;68331;53.362;55.932;2023-07-20T00:52:51;10.57;;;9.15;;
78931;SDS011;68331;53.362;55.932;2023-07-20T00:55:19;10.45;;;9.40;;
78931;SDS011;68331;53.362;55.932;2023-07-20T01:00:11;10.13;;;9.05;;
78931;SDS011;68331;53.362;55.932;2023-07-20T01:02:38;9.80;;;8.80;;
78931;SDS011;68331;53.362;55.932;2023-07-20T01:05:04;9.75;;;8.85;;
78931;SDS011;68331;53.362;55.932;2023-07-20T01:07:34;10.68;;;9.57;;
78931;SDS011;68331;53.362;55.932;2023-07-20T01:15:08;11.55;;;10.35;;
78931;SDS011;68331;53.362;55.932;2023-07-20T01:17:35;13.00;;;10.52;;
78931;SDS011;68331;53.362;55.932;2023-07-20T01:20:01;12.43;;;11.20;;
78931;SDS011;68331;53.362;55.932;2023-07-20T01:22:38;12.38;;;10.02;;
78931;SDS011;68331;53.362;55.932;2023-07-20T01:25:44;11.95;;;10.18;;
78931;SDS011;68331;53.362;55.932;2023-07-20T01:31:32;10.68;;;9.57;;
78931;SDS011;68331;53.362;55.932;2023-07-20T01:34:00;10.82;;;9.70;;
78931;SDS011;68331;53.362;55.932;2023-07-20T01:36:29;13.57;;;10.40;;
78931;SDS011;68331;53.362;55.932;2023-07-20T01:38:58;11.48;;;10.35;;
78931;SDS011;68331;53.362;55.932;2023-07-20T01:43:51;10.82;;;9.73;;
78931;SDS011;68331;53.362;55.932;2023-07-20T01:46:17;10.93;;;9.85;;
78931;SDS011;68331;53.362;55.932;2023-07-20T01:48:44;11.23;;;10.13;;
78931;SDS011;68331;53.362;55.932;2023-07-20T01:51:10;11.68;;;10.48;;
78931;SDS011;68331;53.362;55.932;2023-07-20T01:56:03;11.95;;;10.75;;
78931;SDS011;68331;53.362;55.932;2023-07-20T01:58:29;14.32;;;10.85;;
78931;SDS011;68331;53.362;55.932;2023-07-20T02:00:55;13.38;;;11.38;;
78931;SDS011;68331;53.362;55.932;2023-07-20T02:03:21;12.85;;;11.50;;
78931;SDS011;68331;53.362;55.932;2023-07-20T02:05:49;13.35;;;11.05;;
78931;SDS011;68331;53.362;55.932;2023-07-20T02:08:15;14.60;;;11.82;;
78931;SDS011;68331;53.362;55.932;2023-07-20T02:10:44;12.65;;;11.35;;
78931;SDS011;68331;53.362;55.932;2023-07-20T02:13:11;14.13;;;12.60;;
78931;SDS011;68331;53.362;55.932;2023-07-20T02:15:38;13.40;;;11.95;;
78931;SDS011;68331;53.362;55.932;2023-07-20T02:18:04;12.48;;;11.23;;
78931;SDS011;68331;53.362;55.932;2023-07-20T02:20:33;14.20;;;11.68;;
78931;SDS011;68331;53.362;55.932;2023-07-20T02:23:00;13.45;;;12.05;;
78931;SDS011;68331;53.362;55.932;2023-07-20T02:25:26;11.95;;;10.48;;
78931;SDS011;68331;53.362;55.932;2023-07-20T02:27:53;14.68;;;11.50;;
78931;SDS011;68331;53.362;55.932;2023-07-20T02:30:19;12.18;;;10.95;;
78931;SDS011;68331;53.362;55.932;2023-07-20T02:32:45;12.90;;;11.57;;
78931;SDS011;68331;53.362;55.932;2023-07-20T02:35:14;16.27;;;12.68;;
78931;SDS011;68331;53.362;55.932;2023-07-20T02:37:42;13.35;;;12.05;;
78931;SDS011;68331;53.362;55.932;2023-07-20T02:40:08;13.80;;;11.88;;
78931;SDS011;68331;53.362;55.932;2023-07-20T02:42:35;12.60;;;11.43;;
78931;SDS011;68331;53.362;55.932;2023-07-20T02:45:02;15.05;;;12.52;;
78931;SDS011;68331;53.362;55.932;2023-07-20T02:47:33;14.43;;;12.93;;
78931;SDS011;68331;53.362;55.932;2023-07-20T02:50:00;19.98;;;12.98;;
78931;SDS011;68331;53.362;55.932;2023-07-20T02:52:26;17.98;;;13.27;;
78931;SDS011;68331;53.362;55.932;2023-07-20T02:54:52;15.57;;;12.55;;
78931;SDS011;68331;53.362;55.932;2023-07-20T02:57:21;21.08;;;14.10;;
78931;SDS011;68331;53.362;55.932;2023-07-20T02:59:47;16.05;;;12.45;;
78931;SDS011;68331;53.362;55.932;2023-07-20T03:02:13;13.55;;;12.15;;
78931;SDS011;68331;53.362;55.932;2023-07-20T03:04:39;14.20;;;12.68;;
78931;SDS011;68331;53.362;55.932;2023-07-20T03:07:05;16.08;;;14.30;;
78931;SDS011;68331;53.362;55.932;2023-07-20T03:09:32;12.65;;;11.45;;
78931;SDS011;68331;53.362;55.932;2023-07-20T03:11:59;12.40;;;11.10;;
78931;SDS011;68331;53.362;55.932;2023-07-20T03:14:26;11.43;;;10.07;;
78931;SDS011;68331;53.362;55.932;2023-07-20T03:16:52;11.73;;;10.52;;
78931;SDS011;68331;53.362;55.932;2023-07-20T03:19:18;11.80;;;10.45;;
78931;SDS011;68331;53.362;55.932;2023-07-20T03:21:44;11.82;;;9.23;;
78931;SDS011;68331;53.362;55.932;2023-07-20T03:24:11;12.05;;;10.43;;
78931;SDS011;68331;53.362;55.932;2023-07-20T03:26:37;11.13;;;9.95;;
78931;SDS011;68331;53.362;55.932;2023-07-20T03:29:04;11.48;;;10.48;;
78931;SDS011;68331;53.362;55.932;2023-07-20T03:31:32;11.45;;;9.52;;
78931;SDS011;68331;53.362;55.932;2023-07-20T03:33:59;11.43;;;10.32;;
78931;SDS011;68331;53.362;55.932;2023-07-20T03:36:25;10.40;;;9.35;;
78931;SDS011;68331;53.362;55.932;2023-07-20T03:38:51;10.30;;;9.07;;
78931;SDS011;68331;53.362;55.932;2023-07-20T03:41:17;10.48;;;9.48;;
78931;SDS011;68331;53.362;55.932;2023-07-20T03:43:45;9.40;;;8.50;;
78931;SDS011;68331;53.362;55.932;2023-07-20T03:46:11;11.65;;;9.48;;
78931;SDS011;68331;53.362;55.932;2023-07-20T03:48:38;11.25;;;8.82;;
78931;SDS011;68331;53.362;55.932;2023-07-20T03:51:04;9.45;;;8.52;;
78931;SDS011;68331;53.362;55.932;2023-07-20T03:53:30;9.60;;;8.60;;
78931;SDS011;68331;53.362;55.932;2023-07-20T03:58:23;8.68;;;7.88;;
78931;SDS011;68331;53.362;55.932;2023-07-20T04:00:49;9.93;;;7.78;;
78931;SDS011;68331;53.362;55.932;2023-07-20T04:03:21;12.63;;;8.27;;
78931;SDS011;68331;53.362;55.932;2023-07-20T04:05:50;9.07;;;7.95;;
78931;SDS011;68331;53.362;55.932;2023-07-20T04:08:17;9.88;;;8.10;;
78931;SDS011;68331;53.362;55.932;2023-07-20T04:10:43;8.10;;;7.30;;
78931;SDS011;68331;53.362;55.932;2023-07-20T04:13:10;7.93;;;7.10;;
78931;SDS011;68331;53.362;55.932;2023-07-20T04:15:37;7.60;;;6.25;;
78931;SDS011;68331;53.362;55.932;2023-07-20T04:18:03;10.40;;;6.82;;
78931;SDS011;68331;53.362;55.932;2023-07-20T04:25:22;7.05;;;5.07;;
78931;SDS011;68331;53.362;55.932;2023-07-20T04:27:48;7.32;;;5.10;;
78931;SDS011;68331;53.362;55.932;2023-07-20T04:30:16;6.82;;;5.55;;
78931;SDS011;68331;53.362;55.932;2023-07-20T04:32:45;5.95;;;5.30;;
78931;SDS011;68331;53.362;55.932;2023-07-20T04:38:21;4.53;;;4.13;;
78931;SDS011;68331;53.362;55.932;2023-07-20T04:40:53;4.53;;;4.07;;
78931;SDS011;68331;53.362;55.932;2023-07-20T04:43:20;4.55;;;3.83;;
78931;SDS011;68331;53.362;55.932;2023-07-20T04:45:46;5.10;;;4.25;;
78931;SDS011;68331;53.362;55.932;2023-07-20T04:48:15;5.43;;;4.38;;
78931;SDS011;68331;53.362;55.932;2023-07-20T04:50:48;4.38;;;3.90;;
78931;SDS011;68331;53.362;55.932;2023-07-20T04:53:15;3.72;;;3.42;;
78931;SDS011;68331;53.362;55.932;2023-07-20T04:55:46;4.20;;;3.80;;
78931;SDS011;68331;53.362;55.932;2023-07-20T04:58:17;3.85;;;3.40;;
78931;SDS011;68331;53.362;55.932;2023-07-20T05:00:44;3.90;;;3.17;;
78931;SDS011;68331;53.362;55.932;2023-07-20T05:03:10;3.50;;;3.20;;
78931;SDS011;68331;53.362;55.932;2023-07-20T05:05:36;3.58;;;2.97;;
78931;SDS011;68331;53.362;55.932;2023-07-20T05:08:03;4.93;;;3.38;;
78931;SDS011;68331;53.362;55.932;2023-07-20T05:10:29;3.90;;;3.42;;
78931;SDS011;68331;53.362;55.932;2023-07-20T05:12:56;4.25;;;3.42;;
78931;SDS011;68331;53.362;55.932;2023-07-20T05:15:21;3.90;;;3.30;;
78931;SDS011;68331;53.362;55.932;2023-07-20T05:17:47;5.15;;;2.83;;
78931;SDS011;68331;53.362;55.932;2023-07-20T05:20:14;4.75;;;3.28;;
78931;SDS011;68331;53.362;55.932;2023-07-20T05:22:42;3.50;;;3.20;;
78931;SDS011;68331;53.362;55.932;2023-07-20T05:25:09;4.18;;;2.88;;
78931;SDS011;68331;53.362;55.932;2023-07-20T05:27:37;4.07;;;3.00;;
78931;SDS011;68331;53.362;55.932;2023-07-20T05:32:30;3.25;;;2.50;;
78931;SDS011;68331;53.362;55.932;2023-07-20T05:34:56;7.40;;;2.50;;
78931;SDS011;68331;53.362;55.932;2023-07-20T05:37:22;2.60;;;1.80;;
78931;SDS011;68331;53.362;55.932;2023-07-20T05:39:47;3.35;;;2.17;;
78931;SDS011;68331;53.362;55.932;2023-07-20T05:42:14;4.10;;;2.53;;
78931;SDS011;68331;53.362;55.932;2023-07-20T05:44:40;2.55;;;2.17;;
78931;SDS011;68331;53.362;55.932;2023-07-20T05:47:07;4.78;;;2.55;;
78931;SDS011;68331;53.362;55.932;2023-07-20T05:49:34;3.20;;;2.45;;
78931;SDS011;68331;53.362;55.932;2023-07-20T05:52:00;3.95;;;2.08;;
78931;SDS011;68331;53.362;55.932;2023-07-20T05:54:27;2.92;;;2.33;;
78931;SDS011;68331;53.362;55.932;2023-07-20T05:56:53;2.58;;;2.17;;
78931;SDS011;68331;53.362;55.932;2023-07-20T05:59:19;2.15;;;1.90;;
78931;SDS011;68331;53.362;55.932;2023-07-20T06:01:46;3.47;;;1.65;;
78931;SDS011;68331;53.362;55.932;2023-07-20T06:04:15;2.20;;;1.98;;
78931;SDS011;68331;53.362;55.932;2023-07-20T06:06:41;2.70;;;1.80;;
78931;SDS011;68331;53.362;55.932;2023-07-20T06:09:07;4.38;;;1.30;;
78931;SDS011;68331;53.362;55.932;2023-07-20T06:11:38;1.52;;;1.33;;
78931;SDS011;68331;53.362;55.932;2023-07-20T06:14:04;3.25;;;1.50;;
78931;SDS011;68331;53.362;55.932;2023-07-20T06:16:31;1.58;;;1.42;;
78931;SDS011;68331;53.362;55.932;2023-07-20T06:18:58;3.17;;;1.40;;
78931;SDS011;68331;53.362;55.932;2023-07-20T06:21:25;3.67;;;2.00;;
78931;SDS011;68331;53.362;55.932;2023-07-20T06:23:52;3.15;;;2.17;;
78931;SDS011;68331;53.362;55.932;2023-07-20T06:26:18;7.07;;;2.58;;
78931;SDS011;68331;53.362;55.932;2023-07-20T06:28:45;2.80;;;1.98;;
78931;SDS011;68331;53.362;55.932;2023-07-20T06:31:11;2.15;;;1.30;;
78931;SDS011;68331;53.362;55.932;2023-07-20T06:33:37;3.90;;;1.63;;
78931;SDS011;68331;53.362;55.932;2023-07-20T06:38:29;3.50;;;1.60;;
78931;SDS011;68331;53.362;55.932;2023-07-20T06:40:55;3.83;;;1.48;;
78931;SDS011;68331;53.362;55.932;2023-07-20T06:43:21;2.63;;;1.70;;
78931;SDS011;68331;53.362;55.932;2023-07-20T06:45:51;3.22;;;1.10;;
78931;SDS011;68331;53.362;55.932;2023-07-20T06:48:19;2.80;;;1.65;;
78931;SDS011;68331;53.362;55.932;2023-07-20T06:50:45;2.22;;;1.30;;
78931;SDS011;68331;53.362;55.932;2023-07-20T06:53:12;4.03;;;2.08;;
78931;SDS011;68331;53.362;55.932;2023-07-20T06:55:39;4.15;;;1.60;;
78931;SDS011;68331;53.362;55.932;2023-07-20T06:58:07;1.88;;;1.70;;
78931;SDS011;68331;53.362;55.932;2023-07-20T07:00:33;4.07;;;1.50;;
78931;SDS011;68331;53.362;55.932;2023-07-20T07:02:59;2.97;;;1.88;;
78931;SDS011;68331;53.362;55.932;2023-07-20T07:05:25;2.17;;;1.60;;
78931;SDS011;68331;53.362;55.932;2023-07-20T07:07:51;3.88;;;1.75;;
78931;SDS011;68331;53.362;55.932;2023-07-20T07:10:17;1.90;;;1.50;;
78931;SDS011;68331;53.362;55.932;2023-07-20T07:12:44;1.75;;;1.30;;
78931;SDS011;68331;53.362;55.932;2023-07-20T07:15:10;2.42;;;1.40;;
78931;SDS011;68331;53.362;55.932;2023-07-20T07:17:36;4.25;;;1.42;;
78931;SDS011;68331;53.362;55.932;2023-07-20T07:20:02;3.80;;;1.58;;
78931;SDS011;68331;53.362;55.932;2023-07-20T07:22:30;3.33;;;1.63;;
78931;SDS011;68331;53.362;55.932;2023-07-20T07:24:56;1.85;;;1.48;;
78931;SDS011;68331;53.362;55.932;2023-07-20T07:27:22;3.25;;;1.60;;
78931;SDS011;68331;53.362;55.932;2023-07-20T07:29:48;3.00;;;1.88;;
78931;SDS011;68331;53.362;55.932;2023-07-20T07:32:15;3.20;;;1.73;;
78931;SDS011;68331;53.362;55.932;2023-07-20T07:34:43;3.25;;;1.80;;
78931;SDS011;68331;53.362;55.932;2023-07-20T07:37:12;4.82;;;2.13;;
78931;SDS011;68331;53.362;55.932;2023-07-20T07:39:38;2.00;;;1.80;;
78931;SDS011;68331;53.362;55.932;2023-07-20T07:44:31;4.72;;;1.90;;
78931;SDS011;68331;53.362;55.932;2023-07-20T07:46:57;5.18;;;2.20;;
78931;SDS011;68331;53.362;55.932;2023-07-20T07:49:23;2.35;;;2.00;;
78931;SDS011;68331;53.362;55.932;2023-07-20T07:51:49;2.85;;;1.80;;
78931;SDS011;68331;53.362;55.932;2023-07-20T07:54:15;5.22;;;2.30;;
78931;SDS011;68331;53.362;55.932;2023-07-20T07:56:41;1.90;;;1.73;;
78931;SDS011;68331;53.362;55.932;2023-07-20T07:59:08;2.42;;;1.90;;
78931;SDS011;68331;53.362;55.932;2023-07-20T08:01:34;3.15;;;1.80;;
78931;SDS011;68331;53.362;55.932;2023-07-20T08:04:00;1.67;;;1.58;;
78931;SDS011;68331;53.362;55.932;2023-07-20T08:06:26;4.47;;;2.22;;
78931;SDS011;68331;53.362;55.932;2023-07-20T08:08:52;2.10;;;1.70;;
78931;SDS011;68331;53.362;55.932;2023-07-20T08:11:18;2.88;;;1.35;;
78931;SDS011;68331;53.362;55.932;2023-07-20T08:13:44;5.15;;;2.05;;
78931;SDS011;68331;53.362;55.932;2023-07-20T08:16:10;6.35;;;1.50;;
78931;SDS011;68331;53.362;55.932;2023-07-20T08:18:36;6.25;;;1.40;;
78931;SDS011;68331;53.362;55.932;2023-07-20T08:21:02;1.45;;;1.33;;
78931;SDS011;68331;53.362;55.932;2023-07-20T08:23:28;2.75;;;1.50;;
78931;SDS011;68331;53.362;55.932;2023-07-20T08:25:54;25.50;;;3.20;;
78931;SDS011;68331;53.362;55.932;2023-07-20T08:28:21;1.83;;;1.40;;
78931;SDS011;68331;53.362;55.932;2023-07-20T08:30:48;1.55;;;1.25;;
78931;SDS011;68331;53.362;55.932;2023-07-20T08:33:16;1.33;;;1.23;;
78931;SDS011;68331;53.362;55.932;2023-07-20T08:35:47;1.67;;;1.58;;
78931;SDS011;68331;53.362;55.932;2023-07-20T08:38:13;6.75;;;1.67;;
78931;SDS011;68331;53.362;55.932;2023-07-20T08:40:40;2.00;;;1.25;;
78931;SDS011;68331;53.362;55.932;2023-07-20T08:43:11;2.45;;;1.58;;
78931;SDS011;68331;53.362;55.932;2023-07-20T08:45:39;1.88;;;1.38;;
78931;SDS011;68331;53.362;55.932;2023-07-20T08:48:07;5.65;;;1.75;;
78931;SDS011;68331;53.362;55.932;2023-07-20T08:50:34;1.50;;;1.40;;
78931;SDS011;68331;53.362;55.932;2023-07-20T08:53:00;2.40;;;1.52;;
78931;SDS011;68331;53.362;55.932;2023-07-20T08:55:27;2.10;;;1.60;;
78931;SDS011;68331;53.362;55.932;2023-07-20T08:57:57;1.27;;;1.17;;
78931;SDS011;68331;53.362;55.932;2023-07-20T09:00:24;2.60;;;1.65;;
78931;SDS011;68331;53.362;55.932;2023-07-20T09:02:55;2.92;;;1.30;;
78931;SDS011;68331;53.362;55.932;2023-07-20T09:05:22;2.33;;;1.50;;
78931;SDS011;68331;53.362;55.932;2023-07-20T09:07:53;3.15;;;1.50;;
78931;SDS011;68331;53.362;55.932;2023-07-20T09:10:23;1.67;;;1.50;;
78931;SDS011;68331;53.362;55.932;2023-07-20T09:12:50;4.78;;;2.58;;
78931;SDS011;68331;53.362;55.932;2023-07-20T09:15:16;1.85;;;1.55;;
78931;SDS011;68331;53.362;55.932;2023-07-20T09:17:49;2.53;;;1.75;;
78931;SDS011;68331;53.362;55.932;2023-07-20T09:20:17;2.60;;;1.40;;
78931;SDS011;68331;53.362;55.932;2023-07-20T09:22:44;1.90;;;1.40;;
78931;SDS011;68331;53.362;55.932;2023-07-20T09:25:14;10.90;;;3.33;;
78931;SDS011;68331;53.362;55.932;2023-07-20T09:27:48;2.35;;;1.40;;
78931;SDS011;68331;53.362;55.932;2023-07-20T09:30:17;2.20;;;1.60;;
78931;SDS011;68331;53.362;55.932;2023-07-20T09:32:44;5.80;;;2.60;;
78931;SDS011;68331;53.362;55.932;2023-07-20T09:35:14;12.90;;;5.28;;
78931;SDS011;68331;53.362;55.932;2023-07-20T09:37:55;3.20;;;1.58;;
78931;SDS011;68331;53.362;55.932;2023-07-20T09:40:25;21.23;;;7.68;;
78931;SDS011;68331;53.362;55.932;2023-07-20T09:42:52;27.60;;;10.85;;
78931;SDS011;68331;53.362;55.932;2023-07-20T09:45:33;5.93;;;2.47;;
78931;SDS011;68331;53.362;55.932;2023-07-20T09:48:05;6.88;;;3.45;;
78931;SDS011;68331;53.362;55.932;2023-07-20T09:50:33;3.38;;;2.28;;
78931;SDS011;68331;53.362;55.932;2023-07-20T09:53:04;9.93;;;4.55;;
78931;SDS011;68331;53.362;55.932;2023-07-20T09:55:31;2.00;;;1.80;;
78931;SDS011;68331;53.362;55.932;2023-07-20T09:58:00;2.25;;;1.80;;
78931;SDS011;68331;53.362;55.932;2023-07-20T10:00:26;12.27;;;4.28;;
78931;SDS011;68331;53.362;55.932;2023-07-20T10:02:52;13.70;;;4.53;;
78931;SDS011;68331;53.362;55.932;2023-07-20T10:05:21;12.43;;;7.88;;
78931;SDS011;68331;53.362;55.932;2023-07-20T10:07:49;4.10;;;2.28;;
78931;SDS011;68331;53.362;55.932;2023-07-20T10:10:17;2.38;;;1.75;;
78931;SDS011;68331;53.362;55.932;2023-07-20T10:12:46;17.00;;;6.75;;
78931;SDS011;68331;53.362;55.932;2023-07-20T10:15:33;9.77;;;4.80;;
78931;SDS011;68331;53.362;55.932;2023-07-20T10:18:02;6.18;;;3.05;;
78931;SDS011;68331;53.362;55.932;2023-07-20T10:20:34;2.08;;;1.63;;
78931;SDS011;68331;53.362;55.932;2023-07-20T10:23:03;7.78;;;3.22;;
78931;SDS011;68331;53.362;55.932;2023-07-20T10:25:30;3.20;;;1.90;;
78931;SDS011;68331;53.362;55.932;2023-07-20T10:27:58;2.28;;;1.98;;
78931;SDS011;68331;53.362;55.932;2023-07-20T10:30:24;4.20;;;1.90;;
78931;SDS011;68331;53.362;55.932;2023-07-20T10:32:51;2.55;;;1.30;;
78931;SDS011;68331;53.362;55.932;2023-07-20T10:35:21;2.25;;;1.30;;
78931;SDS011;68331;53.362;55.932;2023-07-20T10:40:36;4.00;;;1.88;;
78931;SDS011;68331;53.362;55.932;2023-07-20T10:43:05;2.70;;;1.23;;
78931;SDS011;68331;53.362;55.932;2023-07-20T10:45:51;5.68;;;2.25;;
78931;SDS011;68331;53.362;55.932;2023-07-20T10:48:22;2.35;;;1.50;;
78931;SDS011;68331;53.362;55.932;2023-07-20T10:53:38;1.52;;;1.40;;
78931;SDS011;68331;53.362;55.932;2023-07-20T10:56:08;2.80;;;1.83;;
78931;SDS011;68331;53.362;55.932;2023-07-20T11:01:03;7.13;;;3.25;;
78931;SDS011;68331;53.362;55.932;2023-07-20T11:03:32;2.80;;;1.60;;
78931;SDS011;68331;53.362;55.932;2023-07-20T11:05:59;1.70;;;1.60;;
78931;SDS011;68331;53.362;55.932;2023-07-20T11:08:45;1.85;;;1.70;;
78931;SDS011;68331;53.362;55.932;2023-07-20T11:11:21;4.65;;;2.05;;
78931;SDS011;68331;53.362;55.932;2023-07-20T11:13:56;2.78;;;1.70;;
78931;SDS011;68331;53.362;55.932;2023-07-20T11:16:39;2.95;;;1.40;;
78931;SDS011;68331;53.362;55.932;2023-07-20T11:21:55;4.47;;;1.45;;
78931;SDS011;68331;53.362;55.932;2023-07-20T11:24:23;3.40;;;1.52;;
78931;SDS011;68331;53.362;55.932;2023-07-20T11:26:52;4.68;;;1.73;;
78931;SDS011;68331;53.362;55.932;2023-07-20T11:29:22;2.97;;;1.40;;
78931;SDS011;68331;53.362;55.932;2023-07-20T11:31:50;1.73;;;1.63;;
78931;SDS011;68331;53.362;55.932;2023-07-20T11:34:17;2.63;;;1.30;;
78931;SDS011;68331;53.362;55.932;2023-07-20T11:36:47;3.42;;;1.48;;
78931;SDS011;68331;53.362;55.932;2023-07-20T11:39:18;3.35;;;1.45;;
78931;SDS011;68331;53.362;55.932;2023-07-20T11:41:49;1.77;;;1.48;;
78931;SDS011;68331;53.362;55.932;2023-07-20T11:44:20;4.05;;;1.98;;
78931;SDS011;68331;53.362;55.932;2023-07-20T11:47:01;3.05;;;1.73;;
78931;SDS011;68331;53.362;55.932;2023-07-20T11:49:29;3.97;;;1.98;;
78931;SDS011;68331;53.362;55.932;2023-07-20T11:51:56;2.80;;;1.98;;
78931;SDS011;68331;53.362;55.932;2023-07-20T11:56:53;1.75;;;1.30;;
78931;SDS011;68331;53.362;55.932;2023-07-20T11:59:22;2.05;;;1.17;;
78931;SDS011;68331;53.362;55.932;2023-07-20T12:01:48;4.50;;;1.63;;
78931;SDS011;68331;53.362;55.932;2023-07-20T12:04:14;2.28;;;1.58;;
78931;SDS011;68331;53.362;55.932;2023-07-20T12:06:44;3.78;;;1.48;;
78931;SDS011;68331;53.362;55.932;2023-07-20T12:09:13;4.45;;;1.63;;
78931;SDS011;68331;53.362;55.932;2023-07-20T12:11:42;2.10;;;1.60;;
78931;SDS011;68331;53.362;55.932;2023-07-20T12:14:10;6.60;;;2.05;;
78931;SDS011;68331;53.362;55.932;2023-07-20T12:16:36;2.78;;;1.88;;
78931;SDS011;68331;53.362;55.932;2023-07-20T12:19:06;11.98;;;3.25;;
78931;SDS011;68331;53.362;55.932;2023-07-20T12:21:39;2.53;;;1.92;;
78931;SDS011;68331;53.362;55.932;2023-07-20T12:24:08;1.95;;;1.75;;
78931;SDS011;68331;53.362;55.932;2023-07-20T12:26:37;3.35;;;1.90;;
78931;SDS011;68331;53.362;55.932;2023-07-20T12:29:03;3.28;;;1.70;;
78931;SDS011;68331;53.362;55.932;2023-07-20T12:31:30;2.67;;;1.80;;
78931;SDS011;68331;53.362;55.932;2023-07-20T12:33:56;3.53;;;2.00;;
78931;SDS011;68331;53.362;55.932;2023-07-20T12:36:24;7.68;;;2.50;;
78931;SDS011;68331;53.362;55.932;2023-07-20T12:38:50;2.83;;;2.00;;
78931;SDS011;68331;53.362;55.932;2023-07-20T12:43:44;4.20;;;2.10;;
78931;SDS011;68331;53.362;55.932;2023-07-20T12:46:11;2.88;;;1.70;;
78931;SDS011;68331;53.362;55.932;2023-07-20T12:48:40;4.05;;;1.90;;
78931;SDS011;68331;53.362;55.932;2023-07-20T12:51:09;2.33;;;2.08;;
78931;SDS011;68331;53.362;55.932;2023-07-20T12:53:35;5.55;;;2.05;;
78931;SDS011;68331;53.362;55.932;2023-07-20T12:56:02;3.42;;;1.60;;
78931;SDS011;68331;53.362;55.932;2023-07-20T12:58:28;2.53;;;1.63;;
78931;SDS011;68331;53.362;55.932;2023-07-20T13:00:54;1.88;;;1.50;;
78931;SDS011;68331;53.362;55.932;2023-07-20T13:03:20;3.25;;;2.13;;
78931;SDS011;68331;53.362;55.932;2023-07-20T13:05:47;2.10;;;1.73;;
78931;SDS011;68331;53.362;55.932;2023-07-20T13:08:13;2.88;;;1.60;;
78931;SDS011;68331;53.362;55.932;2023-07-20T13:10:40;3.60;;;1.98;;
78931;SDS011;68331;53.362;55.932;2023-07-20T13:13:06;3.63;;;1.92;;
78931;SDS011;68331;53.362;55.932;2023-07-20T13:18:05;3.67;;;1.75;;
78931;SDS011;68331;53.362;55.932;2023-07-20T13:20:32;2.30;;;1.63;;
78931;SDS011;68331;53.362;55.932;2023-07-20T13:22:58;1.90;;;1.60;;
78931;SDS011;68331;53.362;55.932;2023-07-20T13:25:24;4.88;;;1.77;;
78931;SDS011;68331;53.362;55.932;2023-07-20T13:27:50;4.20;;;1.60;;
78931;SDS011;68331;53.362;55.932;2023-07-20T13:30:16;2.75;;;1.80;;
78931;SDS011;68331;53.362;55.932;2023-07-20T13:32:43;2.95;;;2.00;;
78931;SDS011;68331;53.362;55.932;2023-07-20T13:35:10;4.20;;;1.92;;
78931;SDS011;68331;53.362;55.932;2023-07-20T13:37:37;4.72;;;2.10;;
78931;SDS011;68331;53.362;55.932;2023-07-20T13:40:03;2.75;;;1.98;;
78931;SDS011;68331;53.362;55.932;2023-07-20T13:42:38;3.00;;;2.50;;
78931;SDS011;68331;53.362;55.932;2023-07-20T13:45:04;5.40;;;2.28;;
78931;SDS011;68331;53.362;55.932;2023-07-20T13:47:32;2.42;;;2.00;;
78931;SDS011;68331;53.362;55.932;2023-07-20T13:49:59;3.95;;;2.50;;
78931;SDS011;68331;53.362;55.932;2023-07-20T13:52:25;6.90;;;2.88;;
78931;SDS011;68331;53.362;55.932;2023-07-20T13:54:50;5.50;;;2.75;;
78931;SDS011;68331;53.362;55.932;2023-07-20T13:57:16;2.40;;;2.08;;
78931;SDS011;68331;53.362;55.932;2023-07-20T13:59:43;2.65;;;1.92;;
78931;SDS011;68331;53.362;55.932;2023-07-20T14:02:10;2.70;;;1.63;;
78931;SDS011;68331;53.362;55.932;2023-07-20T14:04:36;3.47;;;1.40;;
78931;SDS011;68331;53.362;55.932;2023-07-20T14:07:02;5.05;;;2.10;;
78931;SDS011;68331;53.362;55.932;2023-07-20T14:09:28;4.60;;;2.10;;
78931;SDS011;68331;53.362;55.932;2023-07-20T14:11:54;4.55;;;2.83;;
78931;SDS011;68331;53.362;55.932;2023-07-20T14:14:20;4.05;;;2.00;;
78931;SDS011;68331;53.362;55.932;2023-07-20T14:16:46;5.85;;;2.60;;
78931;SDS011;68331;53.362;55.932;2023-07-20T14:19:12;8.10;;;3.15;;
78931;SDS011;68331;53.362;55.932;2023-07-20T14:21:39;6.00;;;3.15;;
78931;SDS011;68331;53.362;55.932;2023-07-20T14:24:05;4.90;;;3.17;;
78931;SDS011;68331;53.362;55.932;2023-07-20T14:26:31;3.22;;;2.72;;
78931;SDS011;68331;53.362;55.932;2023-07-20T14:28:57;7.47;;;2.40;;
78931;SDS011;68331;53.362;55.932;2023-07-20T14:31:24;2.45;;;2.25;;
78931;SDS011;68331;53.362;55.932;2023-07-20T14:33:50;4.57;;;2.42;;
78931;SDS011;68331;53.362;55.932;2023-07-20T14:36:17;3.60;;;2.05;;
78931;SDS011;68331;53.362;55.932;2023-07-20T14:38:43;10.38;;;3.20;;
78931;SDS011;68331;53.362;55.932;2023-07-20T14:41:10;7.53;;;3.83;;
78931;SDS011;68331;53.362;55.932;2023-07-20T14:43:36;3.88;;;2.40;;
78931;SDS011;68331;53.362;55.932;2023-07-20T14:46:02;3.00;;;1.90;;
78931;SDS011;68331;53.362;55.932;2023-07-20T14:48:28;3.55;;;2.08;;
78931;SDS011;68331;53.362;55.932;2023-07-20T14:50:54;2.60;;;2.10;;
78931;SDS011;68331;53.362;55.932;2023-07-20T14:53:21;7.93;;;2.33;;
78931;SDS011;68331;53.362;55.932;2023-07-20T14:55:47;3.70;;;2.08;;
78931;SDS011;68331;53.362;55.932;2023-07-20T14:58:13;5.53;;;2.63;;
78931;SDS011;68331;53.362;55.932;2023-07-20T15:00:40;7.20;;;2.60;;
78931;SDS011;68331;53.362;55.932;2023-07-20T15:03:06;5.07;;;3.08;;
78931;SDS011;68331;53.362;55.932;2023-07-20T15:05:35;4.07;;;2.60;;
78931;SDS011;68331;53.362;55.932;2023-07-20T15:08:02;4.60;;;3.13;;
78931;SDS011;68331;53.362;55.932;2023-07-20T15:10:30;6.75;;;2.92;;
78931;SDS011;68331;53.362;55.932;2023-07-20T15:12:56;6.85;;;3.13;;
78931;SDS011;68331;53.362;55.932;2023-07-20T15:15:22;11.43;;;4.53;;
78931;SDS011;68331;53.362;55.932;2023-07-20T15:17:48;9.75;;;4.07;;
78931;SDS011;68331;53.362;55.932;2023-07-20T15:20:15;6.88;;;4.10;;
78931;SDS011;68331;53.362;55.932;2023-07-20T15:22:41;4.82;;;2.83;;
78931;SDS011;68331;53.362;55.932;2023-07-20T15:25:08;8.82;;;2.92;;